Ninde, Virginia
Current Conditions -  °F | °C
As of 12:56 PM on Friday 31 Oct 2014 (Local Time) from KNYG Reporting Station
Broken Clouds Broken Clouds  
Wind Chill: 55°   Ceiling: 5500
Heat Index: 55°   Visibility: 10mi
Dew Point: 39°   Wind: 7mph
Humidity: 55%   Direction: 50°NE
Pressure: 29.94"   Gusts: NA
Location:  38.27°N, 77.06°W
Report Text: KNYG 311656Z 05006KT 10SM BKN055 13/04 A2994 RMK AO2 SLP140 T01280039 $
Loading
Personal Weather Stations






























Interactive Weather Map
Tropical Storm Tracking
New forecast layout! Learn more

10-Day Weather Forecast

Advertisements
Track Severe Weather on mobile